sensor_id;sensor_type;location;lat;lon;timestamp;P1;durP1;ratioP1;P2;durP2;ratioP2
64018;SDS011;66942;52.138;5.216;2023-02-24T00:02:36;20.8;;;8.5;;
64018;SDS011;66942;52.138;5.216;2023-02-24T00:04:12;19.91;;;8.2;;
64018;SDS011;66942;52.138;5.216;2023-02-24T00:05:48;18.3;;;7.8;;
64018;SDS011;66942;52.138;5.216;2023-02-24T00:09:01;12.6;;;6.8;;
64018;SDS011;66942;52.138;5.216;2023-02-24T00:10:38;21.0;;;8.4;;
64018;SDS011;66942;52.138;5.216;2023-02-24T00:12:15;19.91;;;8.2;;
64018;SDS011;66942;52.138;5.216;2023-02-24T00:15:27;29.1;;;12.1;;
64018;SDS011;66942;52.138;5.216;2023-02-24T00:17:04;20.3;;;8.81;;
64018;SDS011;66942;52.138;5.216;2023-02-24T00:18:40;23.0;;;11.1;;
64018;SDS011;66942;52.138;5.216;2023-02-24T00:20:19;23.0;;;9.5;;
64018;SDS011;66942;52.138;5.216;2023-02-24T00:23:32;23.5;;;10.7;;
64018;SDS011;66942;52.138;5.216;2023-02-24T00:25:09;15.8;;;8.1;;
64018;SDS011;66942;52.138;5.216;2023-02-24T00:26:49;20.11;;;9.31;;
64018;SDS011;66942;52.138;5.216;2023-02-24T00:30:05;20.5;;;9.9;;
64018;SDS011;66942;52.138;5.216;2023-02-24T00:31:42;18.91;;;9.0;;
64018;SDS011;66942;52.138;5.216;2023-02-24T00:33:19;23.4;;;9.81;;
64018;SDS011;66942;52.138;5.216;2023-02-24T00:34:55;21.5;;;9.5;;
64018;SDS011;66942;52.138;5.216;2023-02-24T00:38:08;19.2;;;8.9;;
64018;SDS011;66942;52.138;5.216;2023-02-24T00:39:44;18.91;;;8.71;;
64018;SDS011;66942;52.138;5.216;2023-02-24T00:41:21;23.8;;;9.71;;
64018;SDS011;66942;52.138;5.216;2023-02-24T00:44:36;14.0;;;8.2;;
64018;SDS011;66942;52.138;5.216;2023-02-24T00:46:15;17.5;;;8.2;;
64018;SDS011;66942;52.138;5.216;2023-02-24T00:47:53;21.4;;;8.4;;
64018;SDS011;66942;52.138;5.216;2023-02-24T00:51:08;14.8;;;7.4;;
64018;SDS011;66942;52.138;5.216;2023-02-24T00:52:46;15.4;;;8.0;;
64018;SDS011;66942;52.138;5.216;2023-02-24T00:54:23;22.6;;;9.81;;
64018;SDS011;66942;52.138;5.216;2023-02-24T00:56:01;25.8;;;10.5;;
64018;SDS011;66942;52.138;5.216;2023-02-24T00:59:13;14.8;;;7.1;;
64018;SDS011;66942;52.138;5.216;2023-02-24T01:00:52;23.8;;;10.6;;
64018;SDS011;66942;52.138;5.216;2023-02-24T01:02:28;22.6;;;9.6;;
64018;SDS011;66942;52.138;5.216;2023-02-24T01:05:42;21.0;;;9.1;;
64018;SDS011;66942;52.138;5.216;2023-02-24T01:07:18;15.3;;;7.1;;
64018;SDS011;66942;52.138;5.216;2023-02-24T01:08:56;14.6;;;7.9;;
64018;SDS011;66942;52.138;5.216;2023-02-24T01:10:33;19.0;;;9.4;;
64018;SDS011;66942;52.138;5.216;2023-02-24T01:13:48;18.41;;;8.0;;
64018;SDS011;66942;52.138;5.216;2023-02-24T01:15:24;17.7;;;8.6;;
64018;SDS011;66942;52.138;5.216;2023-02-24T01:17:00;9.31;;;6.0;;
64018;SDS011;66942;52.138;5.216;2023-02-24T01:20:16;15.6;;;8.2;;
64018;SDS011;66942;52.138;5.216;2023-02-24T01:21:52;17.0;;;8.31;;
64018;SDS011;66942;52.138;5.216;2023-02-24T01:23:29;12.5;;;6.7;;
64018;SDS011;66942;52.138;5.216;2023-02-24T01:26:42;14.6;;;7.4;;
64018;SDS011;66942;52.138;5.216;2023-02-24T01:28:19;14.6;;;6.7;;
64018;SDS011;66942;52.138;5.216;2023-02-24T01:29:55;11.3;;;6.3;;
64018;SDS011;66942;52.138;5.216;2023-02-24T01:31:31;14.5;;;6.7;;
64018;SDS011;66942;52.138;5.216;2023-02-24T01:34:44;13.0;;;6.9;;
64018;SDS011;66942;52.138;5.216;2023-02-24T01:36:21;10.4;;;5.3;;
64018;SDS011;66942;52.138;5.216;2023-02-24T01:38:00;17.0;;;7.6;;
64018;SDS011;66942;52.138;5.216;2023-02-24T01:41:13;14.9;;;7.3;;
64018;SDS011;66942;52.138;5.216;2023-02-24T01:42:52;18.8;;;7.2;;
64018;SDS011;66942;52.138;5.216;2023-02-24T01:45:32;11.6;;;6.8;;
64018;SDS011;66942;52.138;5.216;2023-02-24T01:47:10;14.4;;;7.1;;
64018;SDS011;66942;52.138;5.216;2023-02-24T01:48:46;15.8;;;7.3;;
64018;SDS011;66942;52.138;5.216;2023-02-24T01:50:23;14.5;;;6.6;;
64018;SDS011;66942;52.138;5.216;2023-02-24T01:53:45;17.5;;;7.2;;
64018;SDS011;66942;52.138;5.216;2023-02-24T01:55:23;18.91;;;8.1;;
64018;SDS011;66942;52.138;5.216;2023-02-24T01:57:03;12.1;;;6.0;;
64018;SDS011;66942;52.138;5.216;2023-02-24T01:58:41;12.1;;;6.0;;
64018;SDS011;66942;52.138;5.216;2023-02-24T02:01:56;14.0;;;6.9;;
64018;SDS011;66942;52.138;5.216;2023-02-24T02:03:37;10.9;;;6.5;;
64018;SDS011;66942;52.138;5.216;2023-02-24T02:05:16;9.81;;;5.4;;
64018;SDS011;66942;52.138;5.216;2023-02-24T02:08:30;9.1;;;5.7;;
64018;SDS011;66942;52.138;5.216;2023-02-24T02:10:09;10.21;;;6.0;;
64018;SDS011;66942;52.138;5.216;2023-02-24T02:11:47;7.6;;;4.8;;
64018;SDS011;66942;52.138;5.216;2023-02-24T02:13:24;12.9;;;6.0;;
64018;SDS011;66942;52.138;5.216;2023-02-24T02:16:56;11.4;;;6.6;;
64018;SDS011;66942;52.138;5.216;2023-02-24T02:18:41;13.7;;;6.2;;
64018;SDS011;66942;52.138;5.216;2023-02-24T02:20:33;8.31;;;5.0;;
64018;SDS011;66942;52.138;5.216;2023-02-24T02:22:40;9.71;;;5.4;;
64018;SDS011;66942;52.138;5.216;2023-02-24T02:25:15;17.7;;;7.7;;
64018;SDS011;66942;52.138;5.216;2023-02-24T02:27:06;11.7;;;5.7;;
64018;SDS011;66942;52.138;5.216;2023-02-24T02:29:49;10.0;;;5.0;;
64018;SDS011;66942;52.138;5.216;2023-02-24T02:33:21;17.2;;;6.6;;
64018;SDS011;66942;52.138;5.216;2023-02-24T02:36:28;9.9;;;5.0;;
64018;SDS011;66942;52.138;5.216;2023-02-24T02:39:57;13.0;;;5.4;;
64018;SDS011;66942;52.138;5.216;2023-02-24T02:41:45;16.11;;;6.2;;
64018;SDS011;66942;52.138;5.216;2023-02-24T02:43:29;9.4;;;5.0;;
64018;SDS011;66942;52.138;5.216;2023-02-24T02:45:13;11.3;;;5.8;;
64018;SDS011;66942;52.138;5.216;2023-02-24T02:46:58;13.3;;;5.6;;
64018;SDS011;66942;52.138;5.216;2023-02-24T02:50:26;13.8;;;6.4;;
64018;SDS011;66942;52.138;5.216;2023-02-24T02:52:11;20.41;;;7.3;;
64018;SDS011;66942;52.138;5.216;2023-02-24T02:53:54;13.0;;;6.0;;
64018;SDS011;66942;52.138;5.216;2023-02-24T02:55:37;18.61;;;7.8;;
64018;SDS011;66942;52.138;5.216;2023-02-24T02:57:20;18.3;;;6.9;;
64018;SDS011;66942;52.138;5.216;2023-02-24T03:00:38;13.3;;;6.6;;
64018;SDS011;66942;52.138;5.216;2023-02-24T03:02:20;9.5;;;4.91;;
64018;SDS011;66942;52.138;5.216;2023-02-24T03:04:02;14.2;;;5.7;;
64018;SDS011;66942;52.138;5.216;2023-02-24T03:05:43;17.7;;;6.5;;
64018;SDS011;66942;52.138;5.216;2023-02-24T03:09:08;16.5;;;6.3;;
64018;SDS011;66942;52.138;5.216;2023-02-24T03:10:49;12.1;;;5.9;;
64018;SDS011;66942;52.138;5.216;2023-02-24T03:12:28;11.2;;;5.2;;
64018;SDS011;66942;52.138;5.216;2023-02-24T03:14:07;15.9;;;6.1;;
64018;SDS011;66942;52.138;5.216;2023-02-24T03:17:29;18.3;;;7.3;;
64018;SDS011;66942;52.138;5.216;2023-02-24T03:19:12;13.8;;;6.7;;
64018;SDS011;66942;52.138;5.216;2023-02-24T03:20:53;11.1;;;5.2;;
64018;SDS011;66942;52.138;5.216;2023-02-24T03:22:38;8.71;;;4.2;;
64018;SDS011;66942;52.138;5.216;2023-02-24T03:24:20;10.1;;;5.2;;
64018;SDS011;66942;52.138;5.216;2023-02-24T03:27:41;14.4;;;5.3;;
64018;SDS011;66942;52.138;5.216;2023-02-24T03:29:25;10.9;;;4.91;;
64018;SDS011;66942;52.138;5.216;2023-02-24T03:31:09;9.4;;;4.5;;
64018;SDS011;66942;52.138;5.216;2023-02-24T03:32:54;12.3;;;4.8;;
64018;SDS011;66942;52.138;5.216;2023-02-24T03:36:24;8.81;;;4.61;;
64018;SDS011;66942;52.138;5.216;2023-02-24T03:38:00;14.3;;;6.0;;
64018;SDS011;66942;52.138;5.216;2023-02-24T03:39:38;9.5;;;4.91;;
64018;SDS011;66942;52.138;5.216;2023-02-24T03:41:15;7.8;;;4.7;;
64018;SDS011;66942;52.138;5.216;2023-02-24T03:44:35;12.3;;;5.0;;
64018;SDS011;66942;52.138;5.216;2023-02-24T03:46:12;14.2;;;6.0;;
64018;SDS011;66942;52.138;5.216;2023-02-24T03:47:49;12.7;;;5.9;;
64018;SDS011;66942;52.138;5.216;2023-02-24T03:51:03;14.2;;;5.9;;
64018;SDS011;66942;52.138;5.216;2023-02-24T03:52:41;11.6;;;5.11;;
64018;SDS011;66942;52.138;5.216;2023-02-24T03:54:35;8.2;;;5.11;;
64018;SDS011;66942;52.138;5.216;2023-02-24T03:56:27;8.6;;;4.8;;
64018;SDS011;66942;52.138;5.216;2023-02-24T03:58:16;10.21;;;5.0;;
64018;SDS011;66942;52.138;5.216;2023-02-24T04:00:03;6.7;;;4.41;;
64018;SDS011;66942;52.138;5.216;2023-02-24T04:03:29;8.6;;;4.7;;
64018;SDS011;66942;52.138;5.216;2023-02-24T04:05:13;9.4;;;4.7;;
64018;SDS011;66942;52.138;5.216;2023-02-24T04:06:55;11.3;;;4.8;;
64018;SDS011;66942;52.138;5.216;2023-02-24T04:08:38;7.1;;;4.5;;
64018;SDS011;66942;52.138;5.216;2023-02-24T04:12:03;10.3;;;5.4;;
64018;SDS011;66942;52.138;5.216;2023-02-24T04:13:45;9.6;;;4.41;;
64018;SDS011;66942;52.138;5.216;2023-02-24T04:15:29;9.5;;;4.8;;
64018;SDS011;66942;52.138;5.216;2023-02-24T04:17:11;10.8;;;4.91;;
64018;SDS011;66942;52.138;5.216;2023-02-24T04:18:55;9.81;;;4.7;;
64018;SDS011;66942;52.138;5.216;2023-02-24T04:22:14;8.2;;;4.0;;
64018;SDS011;66942;52.138;5.216;2023-02-24T04:23:55;8.2;;;4.2;;
64018;SDS011;66942;52.138;5.216;2023-02-24T04:25:34;7.3;;;3.5;;
64018;SDS011;66942;52.138;5.216;2023-02-24T04:27:12;9.31;;;3.8;;
64018;SDS011;66942;52.138;5.216;2023-02-24T04:30:30;9.4;;;4.0;;
64018;SDS011;66942;52.138;5.216;2023-02-24T04:32:11;13.1;;;4.7;;
64018;SDS011;66942;52.138;5.216;2023-02-24T04:33:51;7.5;;;3.8;;
64018;SDS011;66942;52.138;5.216;2023-02-24T04:37:03;10.0;;;4.1;;
64018;SDS011;66942;52.138;5.216;2023-02-24T04:38:39;9.0;;;4.0;;
64018;SDS011;66942;52.138;5.216;2023-02-24T04:40:16;6.4;;;3.7;;
64018;SDS011;66942;52.138;5.216;2023-02-24T04:41:54;8.81;;;3.8;;
64018;SDS011;66942;52.138;5.216;2023-02-24T04:45:07;7.8;;;4.0;;
64018;SDS011;66942;52.138;5.216;2023-02-24T04:46:44;7.1;;;3.8;;
64018;SDS011;66942;52.138;5.216;2023-02-24T04:48:21;9.4;;;3.6;;
64018;SDS011;66942;52.138;5.216;2023-02-24T04:51:34;9.9;;;3.9;;
64018;SDS011;66942;52.138;5.216;2023-02-24T04:53:11;9.0;;;3.4;;
64018;SDS011;66942;52.138;5.216;2023-02-24T04:54:49;9.5;;;4.3;;
64018;SDS011;66942;52.138;5.216;2023-02-24T04:56:25;7.7;;;3.5;;
64018;SDS011;66942;52.138;5.216;2023-02-24T04:59:38;9.0;;;3.6;;
64018;SDS011;66942;52.138;5.216;2023-02-24T05:01:14;9.0;;;3.6;;
64018;SDS011;66942;52.138;5.216;2023-02-24T05:02:51;7.8;;;3.8;;
64018;SDS011;66942;52.138;5.216;2023-02-24T05:06:12;9.1;;;3.7;;
64018;SDS011;66942;52.138;5.216;2023-02-24T05:07:50;8.31;;;3.5;;
64018;SDS011;66942;52.138;5.216;2023-02-24T05:09:26;8.1;;;3.6;;
64018;SDS011;66942;52.138;5.216;2023-02-24T05:11:02;7.7;;;3.2;;
64018;SDS011;66942;52.138;5.216;2023-02-24T05:14:15;11.5;;;4.3;;
64018;SDS011;66942;52.138;5.216;2023-02-24T05:15:54;9.4;;;3.3;;
64018;SDS011;66942;52.138;5.216;2023-02-24T05:17:32;8.9;;;3.3;;
64018;SDS011;66942;52.138;5.216;2023-02-24T05:20:48;11.0;;;3.5;;
64018;SDS011;66942;52.138;5.216;2023-02-24T05:22:28;13.3;;;3.3;;
64018;SDS011;66942;52.138;5.216;2023-02-24T05:24:04;9.31;;;2.9;;
64018;SDS011;66942;52.138;5.216;2023-02-24T05:25:40;8.71;;;3.2;;
64018;SDS011;66942;52.138;5.216;2023-02-24T05:28:53;7.7;;;3.1;;
64018;SDS011;66942;52.138;5.216;2023-02-24T05:30:30;7.8;;;3.1;;
64018;SDS011;66942;52.138;5.216;2023-02-24T05:32:08;8.1;;;3.0;;
64018;SDS011;66942;52.138;5.216;2023-02-24T05:35:24;10.4;;;3.2;;
64018;SDS011;66942;52.138;5.216;2023-02-24T05:37:01;7.5;;;3.0;;
64018;SDS011;66942;52.138;5.216;2023-02-24T05:38:38;9.81;;;3.3;;
64018;SDS011;66942;52.138;5.216;2023-02-24T05:41:50;8.0;;;3.0;;
64018;SDS011;66942;52.138;5.216;2023-02-24T05:43:29;10.0;;;2.7;;
64018;SDS011;66942;52.138;5.216;2023-02-24T05:45:06;8.2;;;2.8;;
64018;SDS011;66942;52.138;5.216;2023-02-24T05:46:44;9.31;;;3.3;;
64018;SDS011;66942;52.138;5.216;2023-02-24T05:49:56;7.4;;;2.31;;
64018;SDS011;66942;52.138;5.216;2023-02-24T05:51:32;8.81;;;2.5;;
64018;SDS011;66942;52.138;5.216;2023-02-24T05:53:09;10.8;;;3.1;;
64018;SDS011;66942;52.138;5.216;2023-02-24T05:56:21;8.4;;;3.0;;
64018;SDS011;66942;52.138;5.216;2023-02-24T05:57:57;10.1;;;3.0;;
64018;SDS011;66942;52.138;5.216;2023-02-24T05:59:34;6.6;;;2.4;;
64018;SDS011;66942;52.138;5.216;2023-02-24T06:02:47;10.21;;;3.2;;
64018;SDS011;66942;52.138;5.216;2023-02-24T06:04:23;7.5;;;2.6;;
64018;SDS011;66942;52.138;5.216;2023-02-24T06:05:59;10.21;;;2.8;;
64018;SDS011;66942;52.138;5.216;2023-02-24T06:07:36;7.2;;;2.5;;
64018;SDS011;66942;52.138;5.216;2023-02-24T06:10:48;6.2;;;2.4;;
64018;SDS011;66942;52.138;5.216;2023-02-24T06:12:25;7.1;;;2.6;;
64018;SDS011;66942;52.138;5.216;2023-02-24T06:14:04;9.21;;;2.6;;
64018;SDS011;66942;52.138;5.216;2023-02-24T06:17:16;11.5;;;2.9;;
64018;SDS011;66942;52.138;5.216;2023-02-24T06:18:53;7.3;;;2.5;;
64018;SDS011;66942;52.138;5.216;2023-02-24T06:20:29;9.71;;;2.8;;
64018;SDS011;66942;52.138;5.216;2023-02-24T06:23:41;8.5;;;2.8;;
64018;SDS011;66942;52.138;5.216;2023-02-24T06:25:19;8.81;;;2.5;;
64018;SDS011;66942;52.138;5.216;2023-02-24T06:26:55;8.0;;;2.8;;
64018;SDS011;66942;52.138;5.216;2023-02-24T06:28:32;8.5;;;2.7;;
64018;SDS011;66942;52.138;5.216;2023-02-24T06:31:46;5.9;;;2.21;;
64018;SDS011;66942;52.138;5.216;2023-02-24T06:33:22;9.71;;;2.5;;
64018;SDS011;66942;52.138;5.216;2023-02-24T06:34:58;6.7;;;2.8;;
64018;SDS011;66942;52.138;5.216;2023-02-24T06:38:11;6.2;;;2.4;;
64018;SDS011;66942;52.138;5.216;2023-02-24T06:39:48;9.6;;;2.7;;
64018;SDS011;66942;52.138;5.216;2023-02-24T06:41:24;6.3;;;2.6;;
64018;SDS011;66942;52.138;5.216;2023-02-24T06:44:37;7.6;;;2.6;;
64018;SDS011;66942;52.138;5.216;2023-02-24T06:46:15;8.71;;;2.9;;
64018;SDS011;66942;52.138;5.216;2023-02-24T06:47:51;6.8;;;2.7;;
64018;SDS011;66942;52.138;5.216;2023-02-24T06:49:28;6.9;;;2.7;;
64018;SDS011;66942;52.138;5.216;2023-02-24T06:52:48;9.81;;;3.2;;
64018;SDS011;66942;52.138;5.216;2023-02-24T06:54:25;7.3;;;2.9;;
64018;SDS011;66942;52.138;5.216;2023-02-24T06:56:04;5.9;;;2.5;;
64018;SDS011;66942;52.138;5.216;2023-02-24T06:59:17;9.21;;;2.9;;
64018;SDS011;66942;52.138;5.216;2023-02-24T07:00:53;8.4;;;3.3;;
64018;SDS011;66942;52.138;5.216;2023-02-24T07:02:29;8.4;;;3.3;;
64018;SDS011;66942;52.138;5.216;2023-02-24T07:04:05;7.3;;;3.0;;
64018;SDS011;66942;52.138;5.216;2023-02-24T07:07:21;8.31;;;3.0;;
64018;SDS011;66942;52.138;5.216;2023-02-24T07:08:57;7.7;;;2.7;;
64018;SDS011;66942;52.138;5.216;2023-02-24T07:10:34;6.2;;;2.6;;
64018;SDS011;66942;52.138;5.216;2023-02-24T07:13:46;8.1;;;3.0;;
64018;SDS011;66942;52.138;5.216;2023-02-24T07:15:23;8.0;;;3.0;;
64018;SDS011;66942;52.138;5.216;2023-02-24T07:16:59;8.81;;;3.1;;
64018;SDS011;66942;52.138;5.216;2023-02-24T07:20:14;9.71;;;3.5;;
64018;SDS011;66942;52.138;5.216;2023-02-24T07:21:50;7.6;;;3.0;;
64018;SDS011;66942;52.138;5.216;2023-02-24T07:23:31;8.4;;;3.2;;
64018;SDS011;66942;52.138;5.216;2023-02-24T07:25:07;9.5;;;3.1;;
64018;SDS011;66942;52.138;5.216;2023-02-24T07:28:19;8.2;;;3.4;;
64018;SDS011;66942;52.138;5.216;2023-02-24T07:29:55;11.3;;;3.5;;
64018;SDS011;66942;52.138;5.216;2023-02-24T07:31:31;8.5;;;3.2;;
64018;SDS011;66942;52.138;5.216;2023-02-24T07:34:43;8.5;;;3.2;;
64018;SDS011;66942;52.138;5.216;2023-02-24T07:36:19;9.0;;;3.0;;
64018;SDS011;66942;52.138;5.216;2023-02-24T07:37:56;5.6;;;2.5;;
64018;SDS011;66942;52.138;5.216;2023-02-24T07:41:10;9.21;;;3.0;;
64018;SDS011;66942;52.138;5.216;2023-02-24T07:42:48;8.1;;;3.4;;
64018;SDS011;66942;52.138;5.216;2023-02-24T07:44:24;9.71;;;3.3;;
64018;SDS011;66942;52.138;5.216;2023-02-24T07:46:05;8.2;;;3.4;;
64018;SDS011;66942;52.138;5.216;2023-02-24T07:49:19;8.4;;;2.9;;
64018;SDS011;66942;52.138;5.216;2023-02-24T07:50:57;7.1;;;3.4;;
64018;SDS011;66942;52.138;5.216;2023-02-24T07:52:33;8.31;;;3.3;;
64018;SDS011;66942;52.138;5.216;2023-02-24T07:55:45;7.7;;;3.3;;
64018;SDS011;66942;52.138;5.216;2023-02-24T07:57:22;9.81;;;3.3;;
64018;SDS011;66942;52.138;5.216;2023-02-24T07:58:59;9.81;;;3.2;;
64018;SDS011;66942;52.138;5.216;2023-02-24T08:00:37;12.9;;;3.6;;
64018;SDS011;66942;52.138;5.216;2023-02-24T08:03:51;8.81;;;3.4;;
64018;SDS011;66942;52.138;5.216;2023-02-24T08:05:28;9.31;;;3.3;;
64018;SDS011;66942;52.138;5.216;2023-02-24T08:07:04;8.5;;;3.3;;
64018;SDS011;66942;52.138;5.216;2023-02-24T08:10:18;10.1;;;3.7;;
64018;SDS011;66942;52.138;5.216;2023-02-24T08:11:54;9.4;;;4.0;;
64018;SDS011;66942;52.138;5.216;2023-02-24T08:13:31;10.0;;;4.0;;
64018;SDS011;66942;52.138;5.216;2023-02-24T08:15:08;9.71;;;3.6;;
64018;SDS011;66942;52.138;5.216;2023-02-24T08:18:25;10.5;;;4.2;;
64018;SDS011;66942;52.138;5.216;2023-02-24T08:20:01;11.1;;;3.4;;
64018;SDS011;66942;52.138;5.216;2023-02-24T08:21:37;7.7;;;3.3;;
64018;SDS011;66942;52.138;5.216;2023-02-24T08:24:51;8.1;;;3.8;;
64018;SDS011;66942;52.138;5.216;2023-02-24T08:26:30;8.9;;;3.9;;
64018;SDS011;66942;52.138;5.216;2023-02-24T08:28:07;9.4;;;3.6;;
64018;SDS011;66942;52.138;5.216;2023-02-24T08:31:24;11.5;;;3.8;;
64018;SDS011;66942;52.138;5.216;2023-02-24T08:33:00;8.31;;;3.7;;
64018;SDS011;66942;52.138;5.216;2023-02-24T08:34:36;9.9;;;3.6;;
64018;SDS011;66942;52.138;5.216;2023-02-24T08:36:14;9.9;;;4.0;;
64018;SDS011;66942;52.138;5.216;2023-02-24T08:39:29;11.7;;;3.8;;
64018;SDS011;66942;52.138;5.216;2023-02-24T08:41:10;8.0;;;3.3;;
64018;SDS011;66942;52.138;5.216;2023-02-24T08:42:47;10.5;;;3.9;;
64018;SDS011;66942;52.138;5.216;2023-02-24T08:46:02;11.7;;;4.5;;
64018;SDS011;66942;52.138;5.216;2023-02-24T08:47:48;11.4;;;4.0;;
64018;SDS011;66942;52.138;5.216;2023-02-24T08:49:24;13.1;;;4.3;;
64018;SDS011;66942;52.138;5.216;2023-02-24T08:51:01;10.6;;;4.61;;
64018;SDS011;66942;52.138;5.216;2023-02-24T08:54:19;10.5;;;4.1;;
64018;SDS011;66942;52.138;5.216;2023-02-24T08:55:57;10.7;;;4.3;;
64018;SDS011;66942;52.138;5.216;2023-02-24T08:57:35;12.0;;;4.1;;
64018;SDS011;66942;52.138;5.216;2023-02-24T08:59:12;10.1;;;3.9;;
64018;SDS011;66942;52.138;5.216;2023-02-24T09:02:25;11.6;;;4.1;;
64018;SDS011;66942;52.138;5.216;2023-02-24T09:04:03;8.0;;;4.2;;
64018;SDS011;66942;52.138;5.216;2023-02-24T09:05:41;10.9;;;4.3;;
64018;SDS011;66942;52.138;5.216;2023-02-24T09:08:57;11.5;;;4.0;;
64018;SDS011;66942;52.138;5.216;2023-02-24T09:10:33;12.8;;;4.8;;
64018;SDS011;66942;52.138;5.216;2023-02-24T09:12:10;10.21;;;4.41;;
64018;SDS011;66942;52.138;5.216;2023-02-24T09:13:48;10.9;;;4.5;;
64018;SDS011;66942;52.138;5.216;2023-02-24T09:17:01;11.3;;;4.3;;
64018;SDS011;66942;52.138;5.216;2023-02-24T09:18:40;11.0;;;4.2;;
64018;SDS011;66942;52.138;5.216;2023-02-24T09:20:16;11.6;;;5.0;;
64018;SDS011;66942;52.138;5.216;2023-02-24T09:23:31;11.6;;;4.61;;
64018;SDS011;66942;52.138;5.216;2023-02-24T09:25:08;9.6;;;4.61;;
64018;SDS011;66942;52.138;5.216;2023-02-24T09:26:48;10.5;;;4.5;;
64018;SDS011;66942;52.138;5.216;2023-02-24T09:28:25;10.5;;;4.7;;
64018;SDS011;66942;52.138;5.216;2023-02-24T09:31:40;9.6;;;4.41;;
64018;SDS011;66942;52.138;5.216;2023-02-24T09:33:16;9.6;;;4.8;;
64018;SDS011;66942;52.138;5.216;2023-02-24T09:34:55;10.3;;;5.11;;
64018;SDS011;66942;52.138;5.216;2023-02-24T09:38:07;11.9;;;5.0;;
64018;SDS011;66942;52.138;5.216;2023-02-24T09:39:43;15.9;;;5.2;;
64018;SDS011;66942;52.138;5.216;2023-02-24T09:41:22;13.7;;;5.0;;
64018;SDS011;66942;52.138;5.216;2023-02-24T09:43:02;12.6;;;5.11;;
64018;SDS011;66942;52.138;5.216;2023-02-24T09:46:19;12.8;;;5.0;;
64018;SDS011;66942;52.138;5.216;2023-02-24T09:47:55;12.5;;;5.0;;
64018;SDS011;66942;52.138;5.216;2023-02-24T09:49:32;10.8;;;4.61;;
64018;SDS011;66942;52.138;5.216;2023-02-24T09:52:57;15.5;;;6.0;;
64018;SDS011;66942;52.138;5.216;2023-02-24T09:54:35;14.4;;;5.4;;
64018;SDS011;66942;52.138;5.216;2023-02-24T09:56:15;15.9;;;7.3;;
64018;SDS011;66942;52.138;5.216;2023-02-24T09:57:57;15.2;;;5.0;;
64018;SDS011;66942;52.138;5.216;2023-02-24T10:01:30;13.4;;;5.11;;
64018;SDS011;66942;52.138;5.216;2023-02-24T10:03:14;13.4;;;5.11;;
64018;SDS011;66942;52.138;5.216;2023-02-24T10:04:58;16.4;;;6.0;;
64018;SDS011;66942;52.138;5.216;2023-02-24T10:06:43;14.2;;;5.4;;
64018;SDS011;66942;52.138;5.216;2023-02-24T10:08:25;14.5;;;6.4;;
64018;SDS011;66942;52.138;5.216;2023-02-24T10:11:52;13.9;;;4.91;;
64018;SDS011;66942;52.138;5.216;2023-02-24T10:13:31;12.4;;;5.6;;
64018;SDS011;66942;52.138;5.216;2023-02-24T10:15:11;12.2;;;5.6;;
64018;SDS011;66942;52.138;5.216;2023-02-24T10:16:50;13.7;;;6.1;;
64018;SDS011;66942;52.138;5.216;2023-02-24T10:20:16;12.5;;;5.4;;
64018;SDS011;66942;52.138;5.216;2023-02-24T10:21:55;14.0;;;5.2;;
64018;SDS011;66942;52.138;5.216;2023-02-24T10:23:40;10.9;;;5.2;;
64018;SDS011;66942;52.138;5.216;2023-02-24T10:25:37;10.9;;;4.41;;
64018;SDS011;66942;52.138;5.216;2023-02-24T10:27:21;10.5;;;4.7;;
64018;SDS011;66942;52.138;5.216;2023-02-24T10:29:05;10.5;;;4.7;;
64018;SDS011;66942;52.138;5.216;2023-02-24T10:32:38;12.8;;;5.0;;
64018;SDS011;66942;52.138;5.216;2023-02-24T10:34:23;9.6;;;4.2;;
64018;SDS011;66942;52.138;5.216;2023-02-24T10:36:04;12.7;;;5.2;;
64018;SDS011;66942;52.138;5.216;2023-02-24T10:37:45;10.6;;;4.7;;
64018;SDS011;66942;52.138;5.216;2023-02-24T10:41:00;9.4;;;4.5;;
64018;SDS011;66942;52.138;5.216;2023-02-24T10:42:38;12.0;;;5.6;;
64018;SDS011;66942;52.138;5.216;2023-02-24T10:44:19;10.21;;;4.5;;
64018;SDS011;66942;52.138;5.216;2023-02-24T10:45:57;8.6;;;4.61;;
64018;SDS011;66942;52.138;5.216;2023-02-24T10:49:13;6.7;;;4.2;;
64018;SDS011;66942;52.138;5.216;2023-02-24T10:50:55;10.21;;;4.91;;
64018;SDS011;66942;52.138;5.216;2023-02-24T10:52:31;6.3;;;3.6;;
64018;SDS011;66942;52.138;5.216;2023-02-24T10:54:12;8.2;;;4.0;;
64018;SDS011;66942;52.138;5.216;2023-02-24T10:57:40;7.6;;;4.2;;
64018;SDS011;66942;52.138;5.216;2023-02-24T10:59:18;6.3;;;4.7;;
64018;SDS011;66942;52.138;5.216;2023-02-24T11:00:55;7.9;;;4.5;;
64018;SDS011;66942;52.138;5.216;2023-02-24T11:02:45;7.3;;;4.8;;
64018;SDS011;66942;52.138;5.216;2023-02-24T11:06:18;6.4;;;4.61;;
64018;SDS011;66942;52.138;5.216;2023-02-24T11:08:04;5.5;;;3.9;;
64018;SDS011;66942;52.138;5.216;2023-02-24T11:10:11;8.2;;;6.5;;
64018;SDS011;66942;52.138;5.216;2023-02-24T11:11:49;5.0;;;4.5;;
64018;SDS011;66942;52.138;5.216;2023-02-24T11:13:25;5.9;;;4.91;;
64018;SDS011;66942;52.138;5.216;2023-02-24T11:16:50;5.11;;;4.1;;
64018;SDS011;66942;52.138;5.216;2023-02-24T11:18:29;6.0;;;5.0;;
64018;SDS011;66942;52.138;5.216;2023-02-24T11:20:14;5.11;;;4.3;;
64018;SDS011;66942;52.138;5.216;2023-02-24T11:21:58;5.6;;;5.11;;
64018;SDS011;66942;52.138;5.216;2023-02-24T11:23:38;7.2;;;5.4;;
64018;SDS011;66942;52.138;5.216;2023-02-24T11:26:58;6.0;;;5.5;;
64018;SDS011;66942;52.138;5.216;2023-02-24T11:28:39;6.4;;;5.7;;
64018;SDS011;66942;52.138;5.216;2023-02-24T11:30:28;6.8;;;6.3;;
64018;SDS011;66942;52.138;5.216;2023-02-24T11:32:22;6.8;;;6.2;;
64018;SDS011;66942;52.138;5.216;2023-02-24T11:34:13;6.7;;;6.2;;
64018;SDS011;66942;52.138;5.216;2023-02-24T11:37:41;6.1;;;5.7;;
64018;SDS011;66942;52.138;5.216;2023-02-24T11:39:41;6.7;;;6.2;;
64018;SDS011;66942;52.138;5.216;2023-02-24T11:41:26;7.0;;;6.5;;
64018;SDS011;66942;52.138;5.216;2023-02-24T11:43:08;7.5;;;7.0;;
64018;SDS011;66942;52.138;5.216;2023-02-24T11:44:50;7.1;;;6.4;;
64018;SDS011;66942;52.138;5.216;2023-02-24T11:46:35;7.1;;;6.4;;
64018;SDS011;66942;52.138;5.216;2023-02-24T11:50:01;6.8;;;6.2;;
64018;SDS011;66942;52.138;5.216;2023-02-24T11:51:57;6.7;;;6.2;;
64018;SDS011;66942;52.138;5.216;2023-02-24T11:53:37;7.2;;;6.5;;
64018;SDS011;66942;52.138;5.216;2023-02-24T11:55:22;8.1;;;7.3;;
64018;SDS011;66942;52.138;5.216;2023-02-24T11:57:09;7.3;;;6.5;;
64018;SDS011;66942;52.138;5.216;2023-02-24T12:00:35;7.4;;;6.6;;
64018;SDS011;66942;52.138;5.216;2023-02-24T12:02:18;9.0;;;6.9;;
64018;SDS011;66942;52.138;5.216;2023-02-24T12:04:12;9.1;;;7.7;;
64018;SDS011;66942;52.138;5.216;2023-02-24T12:05:56;10.4;;;8.4;;
64018;SDS011;66942;52.138;5.216;2023-02-24T12:07:44;8.2;;;7.4;;
64018;SDS011;66942;52.138;5.216;2023-02-24T12:09:27;9.9;;;8.6;;
64018;SDS011;66942;52.138;5.216;2023-02-24T12:12:54;12.5;;;8.6;;
64018;SDS011;66942;52.138;5.216;2023-02-24T12:14:40;12.3;;;7.8;;
64018;SDS011;66942;52.138;5.216;2023-02-24T12:16:23;14.6;;;8.0;;
64018;SDS011;66942;52.138;5.216;2023-02-24T12:18:05;16.61;;;7.6;;
64018;SDS011;66942;52.138;5.216;2023-02-24T12:21:35;16.0;;;8.81;;
64018;SDS011;66942;52.138;5.216;2023-02-24T12:23:16;18.3;;;7.5;;
64018;SDS011;66942;52.138;5.216;2023-02-24T12:24:57;18.8;;;9.21;;
64018;SDS011;66942;52.138;5.216;2023-02-24T12:26:34;16.0;;;7.6;;
64018;SDS011;66942;52.138;5.216;2023-02-24T12:28:22;20.7;;;7.7;;
64018;SDS011;66942;52.138;5.216;2023-02-24T12:32:39;19.3;;;8.2;;
64018;SDS011;66942;52.138;5.216;2023-02-24T12:36:24;18.61;;;7.2;;
64018;SDS011;66942;52.138;5.216;2023-02-24T12:38:17;22.0;;;8.31;;
64018;SDS011;66942;52.138;5.216;2023-02-24T12:40:14;18.2;;;7.8;;
64018;SDS011;66942;52.138;5.216;2023-02-24T12:42:03;24.9;;;7.5;;
64018;SDS011;66942;52.138;5.216;2023-02-24T12:43:49;21.5;;;7.3;;
64018;SDS011;66942;52.138;5.216;2023-02-24T12:45:36;24.3;;;8.4;;
64018;SDS011;66942;52.138;5.216;2023-02-24T12:47:23;29.4;;;8.31;;
64018;SDS011;66942;52.138;5.216;2023-02-24T12:51:11;26.5;;;7.9;;
64018;SDS011;66942;52.138;5.216;2023-02-24T12:52:59;29.1;;;8.2;;
64018;SDS011;66942;52.138;5.216;2023-02-24T12:54:45;25.7;;;8.0;;
64018;SDS011;66942;52.138;5.216;2023-02-24T12:56:31;32.6;;;9.21;;
64018;SDS011;66942;52.138;5.216;2023-02-24T12:58:18;30.5;;;8.1;;